Time;durP1;ratioP1;P1;durP2;ratioP2;P2;SDS_P1;SDS_P2;PMS_P1;PMS_P2;Temp;Humidity;BMP_temperature;BMP_pressure;BME280_temperature;BME280_humidity;BME280_pressure;Samples;Min_cycle;Max_cycle;Signal;HPM_P1;HPM_P2
2021/08/14 00:02:08;;;;;;;;;;;17.10;80.60;;;;;;4974652;28;20382;-78
2021/08/14 00:04:34;;;;;;;;;;;17.10;80.60;;;;;;4974699;28;19917;-77
2021/08/14 00:06:59;;;;;;;;;;;17.00;80.80;;;;;;4974775;28;19922;-79
2021/08/14 00:09:25;;;;;;;;;;;17.00;81.00;;;;;;4957180;28;19906;-79
2021/08/14 00:11:50;;;;;;;;;;;17.00;81.20;;;;;;4957345;28;19928;-76
2021/08/14 00:14:15;;;;;;;;;;;17.00;82.00;;;;;;4975434;28;19906;-77
2021/08/14 00:16:41;;;;;;;;;;;17.00;81.40;;;;;;4976290;28;19906;-78
2021/08/14 00:19:07;;;;;;;;;;;17.00;81.50;;;;;;4961351;28;19996;-78
2021/08/14 00:21:32;;;;;;;;;;;16.90;81.40;;;;;;4961545;28;20141;-78
2021/08/14 00:23:58;;;;;;;;;;;16.90;81.60;;;;;;4980193;28;20021;-78
2021/08/14 00:26:23;;;;;;;;;;;16.90;81.80;;;;;;4964904;28;19906;-77
2021/08/14 00:28:49;;;;;;;;;;;16.90;82.10;;;;;;4966053;28;19906;-78
2021/08/14 00:31:16;;;;;;;;;;;16.80;82.10;;;;;;4962424;28;19913;-77
2021/08/14 00:33:41;;;;;;;;;;;16.80;82.40;;;;;;4961668;28;19906;-79
2021/08/14 00:36:10;;;;;;;;;;;16.80;82.40;;;;;;4978328;28;20354;-77
2021/08/14 00:38:35;;;;;;;;;;;16.80;82.60;;;;;;4961177;28;19914;-77
2021/08/14 00:41:01;;;;;;;;;;;16.80;82.80;;;;;;4961479;28;20259;-78
2021/08/14 00:43:27;;;;;;;;;;;16.70;82.80;;;;;;4964497;28;20363;-79
2021/08/14 00:45:53;;;;;;;;;;;16.80;83.00;;;;;;4968971;28;19937;-78
2021/08/14 00:48:20;;;;;;;;;;;16.80;83.00;;;;;;4969115;28;19905;-79
2021/08/14 00:50:46;;;;;;;;;;;16.80;83.00;;;;;;4961710;28;19910;-78
2021/08/14 00:53:11;;;;;;;;;;;16.90;83.10;;;;;;4979171;28;19974;-79
2021/08/14 00:55:37;;;;;;;;;;;16.90;83.10;;;;;;4962934;28;19910;-78
2021/08/14 00:58:02;;;;;;;;;;;16.90;83.20;;;;;;4982389;28;19910;-78
2021/08/14 01:00:28;;;;;;;;;;;16.90;83.20;;;;;;4976040;28;19949;-78
2021/08/14 01:02:56;;;;;;;;;;;17.00;83.30;;;;;;5001953;28;19918;-79
2021/08/14 01:05:22;;;;;;;;;;;17.00;83.30;;;;;;5000062;28;19924;-78
2021/08/14 01:07:49;;;;;;;;;;;17.00;83.30;;;;;;4992213;28;19906;-78
2021/08/14 01:10:14;;;;;;;;;;;17.00;83.30;;;;;;4961528;28;19913;-79
2021/08/14 01:12:40;;;;;;;;;;;17.00;83.40;;;;;;4961585;28;19906;-78
2021/08/14 01:15:06;;;;;;;;;;;17.00;83.40;;;;;;4980490;28;20383;-79
2021/08/14 01:17:33;;;;;;;;;;;17.00;83.40;;;;;;4978640;28;19906;-79
2021/08/14 01:19:58;;;;;;;;;;;17.00;83.50;;;;;;4962221;28;19912;-78
2021/08/14 01:22:24;;;;;;;;;;;17.00;83.60;;;;;;4960467;28;19905;-78
2021/08/14 01:24:49;;;;;;;;;;;17.00;83.60;;;;;;4978664;28;19914;-78
2021/08/14 01:27:15;;;;;;;;;;;17.00;83.70;;;;;;4960265;28;19965;-78
2021/08/14 01:29:41;;;;;;;;;;;17.00;83.50;;;;;;4960063;28;20378;-78
2021/08/14 01:32:10;;;;;;;;;;;17.00;83.50;;;;;;4959945;28;19949;-78
2021/08/14 01:34:37;;;;;;;;;;;17.00;83.60;;;;;;4977231;28;19913;-78
2021/08/14 01:37:03;;;;;;;;;;;16.90;83.70;;;;;;4960184;28;20004;-78
2021/08/14 01:39:30;;;;;;;;;;;16.90;83.90;;;;;;4960068;28;20441;-78
2021/08/14 01:42:00;;;;;;;;;;;16.80;84.60;;;;;;4978173;28;19960;-78
2021/08/14 01:44:27;;;;;;;;;;;16.80;84.10;;;;;;4983081;28;19961;-77
2021/08/14 01:46:52;;;;;;;;;;;16.80;84.20;;;;;;4976258;28;19917;-78
2021/08/14 01:49:18;;;;;;;;;;;16.80;84.40;;;;;;4976510;28;19957;-77
2021/08/14 01:51:44;;;;;;;;;;;16.70;84.40;;;;;;4962590;28;19913;-78
2021/08/14 01:54:09;;;;;;;;;;;16.70;84.30;;;;;;4980253;28;19909;-78
2021/08/14 01:56:35;;;;;;;;;;;16.70;84.50;;;;;;4961499;28;19913;-77
2021/08/14 01:59:01;;;;;;;;;;;16.70;84.60;;;;;;4961390;28;19917;-78
2021/08/14 02:01:27;;;;;;;;;;;16.70;84.60;;;;;;4959982;28;19914;-78
2021/08/14 02:03:52;;;;;;;;;;;16.70;84.70;;;;;;4982178;28;20483;-78
2021/08/14 02:06:18;;;;;;;;;;;16.70;84.80;;;;;;4983242;28;20424;-79
2021/08/14 02:08:44;;;;;;;;;;;16.70;84.80;;;;;;4964235;28;19906;-78
2021/08/14 02:11:10;;;;;;;;;;;16.70;85.10;;;;;;4976262;28;19912;-78
2021/08/14 02:13:36;;;;;;;;;;;16.70;85.10;;;;;;4976477;28;19914;-79
2021/08/14 02:16:01;;;;;;;;;;;16.70;85.10;;;;;;4976600;28;19910;-77
2021/08/14 02:18:27;;;;;;;;;;;16.70;85.20;;;;;;4959441;28;19956;-78
2021/08/14 02:20:52;;;;;;;;;;;16.70;85.20;;;;;;4976307;28;20374;-78
2021/08/14 02:23:18;;;;;;;;;;;16.70;85.50;;;;;;4976423;28;20268;-78
2021/08/14 02:25:43;;;;;;;;;;;16.60;86.10;;;;;;4958993;28;19985;-78
2021/08/14 02:28:09;;;;;;;;;;;16.60;85.60;;;;;;4959056;28;19906;-77
2021/08/14 02:30:34;;;;;;;;;;;16.60;85.80;;;;;;4958704;28;19910;-78
2021/08/14 02:33:00;;;;;;;;;;;16.60;85.90;;;;;;4976209;28;20006;-77
2021/08/14 02:35:25;;;;;;;;;;;16.60;85.90;;;;;;4979645;28;20278;-78
2021/08/14 02:37:51;;;;;;;;;;;16.60;85.90;;;;;;4977454;28;20263;-78
2021/08/14 02:40:16;;;;;;;;;;;16.60;86.00;;;;;;4976238;28;19906;-78
2021/08/14 02:42:42;;;;;;;;;;;16.60;86.10;;;;;;4959246;28;19949;-78
2021/08/14 02:45:09;;;;;;;;;;;16.50;86.20;;;;;;4959497;28;19914;-78
2021/08/14 02:47:35;;;;;;;;;;;16.50;86.30;;;;;;4959193;28;19906;-78
2021/08/14 02:50:00;;;;;;;;;;;16.50;86.40;;;;;;4971206;28;19937;-78
2021/08/14 02:52:26;;;;;;;;;;;16.40;86.50;;;;;;4982783;28;19894;-78
2021/08/14 02:54:51;;;;;;;;;;;16.40;86.70;;;;;;4982569;28;19910;-79
2021/08/14 02:57:17;;;;;;;;;;;16.40;86.90;;;;;;4974708;28;19926;-78
2021/08/14 02:59:42;;;;;;;;;;;16.40;87.10;;;;;;4976275;28;19965;-79
2021/08/14 03:02:08;;;;;;;;;;;16.40;87.20;;;;;;4958628;28;19948;-80
2021/08/14 03:04:33;;;;;;;;;;;16.40;87.20;;;;;;4958442;28;19922;-79
2021/08/14 03:06:59;;;;;;;;;;;16.40;87.30;;;;;;4959021;28;20326;-78
2021/08/14 03:09:24;;;;;;;;;;;16.40;87.40;;;;;;4980434;28;19970;-79
2021/08/14 03:11:50;;;;;;;;;;;16.40;87.60;;;;;;4962491;28;19906;-79
2021/08/14 03:14:15;;;;;;;;;;;16.30;87.50;;;;;;4958901;28;19906;-79
2021/08/14 03:16:41;;;;;;;;;;;16.30;87.50;;;;;;4958566;28;19912;-80
2021/08/14 03:19:06;;;;;;;;;;;16.30;87.50;;;;;;4970374;28;19908;-80
2021/08/14 03:21:32;;;;;;;;;;;16.30;87.60;;;;;;4982511;28;19910;-80
2021/08/14 03:23:58;;;;;;;;;;;16.30;87.80;;;;;;4972459;28;19914;-78
2021/08/14 03:26:25;;;;;;;;;;;16.30;87.90;;;;;;4988210;28;19898;-80
2021/08/14 03:28:51;;;;;;;;;;;16.30;87.90;;;;;;4966187;28;20008;-80
2021/08/14 03:31:18;;;;;;;;;;;16.30;87.90;;;;;;4958406;28;20004;-79
2021/08/14 03:33:43;;;;;;;;;;;16.20;87.90;;;;;;4957741;28;19961;-80
2021/08/14 03:36:09;;;;;;;;;;;16.30;88.10;;;;;;4958362;28;19910;-80
2021/08/14 03:38:36;;;;;;;;;;;16.20;88.00;;;;;;4960218;28;20005;-80
2021/08/14 03:41:02;;;;;;;;;;;16.20;88.20;;;;;;4969686;28;19894;-79
2021/08/14 03:43:27;;;;;;;;;;;16.30;88.20;;;;;;4969636;28;19961;-79
2021/08/14 03:45:54;;;;;;;;;;;16.20;88.20;;;;;;4969977;28;19890;-78
2021/08/14 03:48:19;;;;;;;;;;;16.30;88.30;;;;;;4974105;28;19910;-79
2021/08/14 03:50:45;;;;;;;;;;;16.20;88.30;;;;;;4957880;28;19913;-79
2021/08/14 03:53:10;;;;;;;;;;;16.20;88.20;;;;;;4957690;28;19913;-79
2021/08/14 03:55:36;;;;;;;;;;;16.20;88.20;;;;;;4957466;28;19910;-79
2021/08/14 03:58:01;;;;;;;;;;;16.20;88.30;;;;;;4974849;28;19906;-79
2021/08/14 04:00:28;;;;;;;;;;;16.20;88.30;;;;;;4974626;28;20000;-79
2021/08/14 04:02:54;;;;;;;;;;;16.10;88.30;;;;;;4957422;28;20017;-80
2021/08/14 04:05:19;;;;;;;;;;;16.20;88.40;;;;;;4957009;28;19918;-79
2021/08/14 04:07:45;;;;;;;;;;;16.20;88.50;;;;;;4957537;28;19918;-78
2021/08/14 04:10:10;;;;;;;;;;;16.20;88.50;;;;;;4957539;28;19949;-79
2021/08/14 04:12:36;;;;;;;;;;;16.10;88.50;;;;;;4957766;28;19906;-79
2021/08/14 04:15:02;;;;;;;;;;;16.20;88.60;;;;;;4965908;28;19948;-79
2021/08/14 04:17:28;;;;;;;;;;;16.10;88.60;;;;;;4957456;28;19913;-80
2021/08/14 04:19:53;;;;;;;;;;;16.10;88.60;;;;;;4957115;28;19906;-80
2021/08/14 04:22:19;;;;;;;;;;;16.10;88.60;;;;;;4974639;28;19945;-79
2021/08/14 04:24:44;;;;;;;;;;;16.10;88.60;;;;;;4974136;28;20312;-79
2021/08/14 04:27:10;;;;;;;;;;;16.10;88.60;;;;;;4958106;28;19913;-79
2021/08/14 04:29:35;;;;;;;;;;;16.00;88.70;;;;;;4957944;28;20064;-79
2021/08/14 04:32:01;;;;;;;;;;;16.00;88.70;;;;;;4958170;28;19906;-79
2021/08/14 04:34:26;;;;;;;;;;;16.00;88.80;;;;;;4975670;28;20334;-78
2021/08/14 04:36:52;;;;;;;;;;;15.90;88.80;;;;;;4975764;28;20354;-79
2021/08/14 04:39:17;;;;;;;;;;;16.00;88.90;;;;;;4980832;28;19894;-80
2021/08/14 04:41:43;;;;;;;;;;;16.00;89.00;;;;;;4998209;28;19918;-78
2021/08/14 04:44:08;;;;;;;;;;;16.00;89.00;;;;;;4981173;28;19926;-79
2021/08/14 04:46:34;;;;;;;;;;;15.90;89.00;;;;;;4979155;28;19920;-79
2021/08/14 04:48:59;;;;;;;;;;;16.00;89.00;;;;;;4961242;28;19974;-79
2021/08/14 04:51:25;;;;;;;;;;;15.90;89.00;;;;;;4956814;28;19906;-78
2021/08/14 04:53:50;;;;;;;;;;;16.00;89.10;;;;;;4974341;28;20002;-78
2021/08/14 04:56:16;;;;;;;;;;;16.00;89.10;;;;;;4956967;28;19910;-78
2021/08/14 04:58:41;;;;;;;;;;;16.00;89.20;;;;;;4956889;28;20278;-78
2021/08/14 05:01:06;;;;;;;;;;;16.00;89.10;;;;;;4956864;28;19906;-79
2021/08/14 05:03:32;;;;;;;;;;;16.00;89.20;;;;;;4960043;28;19911;-79
2021/08/14 05:05:58;;;;;;;;;;;16.00;89.10;;;;;;4958704;28;20256;-79
2021/08/14 05:08:23;;;;;;;;;;;16.00;89.10;;;;;;4960455;28;19928;-80
2021/08/14 05:10:49;;;;;;;;;;;16.00;89.00;;;;;;4960322;28;19906;-80
2021/08/14 05:13:14;;;;;;;;;;;16.00;89.00;;;;;;4960428;28;19914;-79
2021/08/14 05:15:40;;;;;;;;;;;16.00;89.20;;;;;;4960334;28;20013;-79
2021/08/14 05:18:05;;;;;;;;;;;16.10;89.20;;;;;;4960140;28;19914;-79
2021/08/14 05:20:30;;;;;;;;;;;16.00;89.00;;;;;;4977765;28;19956;-80
2021/08/14 05:22:56;;;;;;;;;;;16.10;89.10;;;;;;4960584;28;19916;-79
2021/08/14 05:25:21;;;;;;;;;;;16.10;89.00;;;;;;4964282;28;19914;-78
2021/08/14 05:27:47;;;;;;;;;;;16.20;88.90;;;;;;4980379;28;19929;-78
2021/08/14 05:30:13;;;;;;;;;;;16.20;88.70;;;;;;4979099;28;19910;-79
2021/08/14 05:32:41;;;;;;;;;;;16.30;88.60;;;;;;4960294;28;20308;-78
2021/08/14 05:35:07;;;;;;;;;;;16.30;88.40;;;;;;4978051;28;19957;-79
2021/08/14 05:37:32;;;;;;;;;;;16.40;88.20;;;;;;4982595;28;19918;-79
2021/08/14 05:39:58;;;;;;;;;;;16.50;88.00;;;;;;4995136;28;19925;-78
2021/08/14 05:42:23;;;;;;;;;;;16.60;87.70;;;;;;4970900;28;19890;-78
2021/08/14 05:44:49;;;;;;;;;;;16.60;87.50;;;;;;4976139;28;19966;-79
2021/08/14 05:47:14;;;;;;;;;;;16.70;87.20;;;;;;4961085;28;19950;-79
2021/08/14 05:49:40;;;;;;;;;;;16.70;86.90;;;;;;4961085;28;19929;-78
2021/08/14 05:52:05;;;;;;;;;;;16.70;86.80;;;;;;4966347;28;19909;-78
2021/08/14 05:54:34;;;;;;;;;;;16.80;86.60;;;;;;4985612;28;19912;-79
2021/08/14 05:57:00;;;;;;;;;;;16.80;86.30;;;;;;4977537;28;19949;-79
2021/08/14 05:59:25;;;;;;;;;;;16.90;86.20;;;;;;4976758;28;19913;-79
2021/08/14 06:01:51;;;;;;;;;;;16.90;86.20;;;;;;4960116;28;20287;-78
2021/08/14 06:04:17;;;;;;;;;;;16.90;85.80;;;;;;4974401;28;20005;-80
2021/08/14 06:06:43;;;;;;;;;;;16.90;85.80;;;;;;4994670;28;19905;-79
2021/08/14 06:09:09;;;;;;;;;;;17.00;85.80;;;;;;4995851;28;19906;-79
2021/08/14 06:11:35;;;;;;;;;;;17.00;85.50;;;;;;4995308;28;19932;-80
2021/08/14 06:14:01;;;;;;;;;;;17.10;85.30;;;;;;4976754;28;19905;-79
2021/08/14 06:16:26;;;;;;;;;;;17.20;85.20;;;;;;4995392;28;19906;-78
2021/08/14 06:18:52;;;;;;;;;;;17.20;84.90;;;;;;4978950;28;20350;-78
2021/08/14 06:21:17;;;;;;;;;;;17.30;84.80;;;;;;4978275;28;19906;-79
2021/08/14 06:23:43;;;;;;;;;;;17.30;84.60;;;;;;4978460;28;19918;-79
2021/08/14 06:26:08;;;;;;;;;;;17.30;84.40;;;;;;4978563;28;20389;-79
2021/08/14 06:28:33;;;;;;;;;;;17.40;83.90;;;;;;4978612;28;19913;-81
2021/08/14 06:30:59;;;;;;;;;;;17.50;84.20;;;;;;4989412;28;19906;-81
2021/08/14 06:33:26;;;;;;;;;;;17.60;83.90;;;;;;5000416;28;19909;-80
2021/08/14 06:35:51;;;;;;;;;;;17.70;83.40;;;;;;4997778;28;19972;-79
2021/08/14 06:38:17;;;;;;;;;;;17.80;83.30;;;;;;4984841;28;19905;-81
2021/08/14 06:40:42;;;;;;;;;;;17.90;83.40;;;;;;4977825;28;20432;-80
2021/08/14 06:43:08;;;;;;;;;;;18.00;83.10;;;;;;4995280;28;19952;-80
2021/08/14 06:45:33;;;;;;;;;;;18.00;81.90;;;;;;4977418;28;19996;-80
2021/08/14 06:47:59;;;;;;;;;;;18.10;81.60;;;;;;4994708;28;20000;-80
2021/08/14 06:50:24;;;;;;;;;;;18.10;82.30;;;;;;4994942;28;20410;-79
2021/08/14 06:52:50;;;;;;;;;;;18.20;82.40;;;;;;4977496;28;19905;-80
2021/08/14 06:55:16;;;;;;;;;;;18.20;82.00;;;;;;4978222;28;19905;-80
2021/08/14 06:57:41;;;;;;;;;;;18.20;81.30;;;;;;4995428;28;19996;-81
2021/08/14 07:00:10;;;;;;;;;;;18.30;81.30;;;;;;4995917;28;19910;-80
2021/08/14 07:02:36;;;;;;;;;;;18.40;81.20;;;;;;4977895;28;19906;-80
2021/08/14 07:05:02;;;;;;;;;;;18.50;81.90;;;;;;4994989;28;19921;-81
2021/08/14 07:07:28;;;;;;;;;;;18.60;80.90;;;;;;4978027;28;19906;-80
2021/08/14 07:09:53;;;;;;;;;;;18.80;80.40;;;;;;4977893;28;19910;-79
2021/08/14 07:12:19;;;;;;;;;;;18.90;80.20;;;;;;4995620;28;19912;-80
2021/08/14 07:14:44;;;;;;;;;;;18.90;79.60;;;;;;4977831;28;19906;-80
2021/08/14 07:17:10;;;;;;;;;;;19.00;78.60;;;;;;4977867;28;19906;-79
2021/08/14 07:19:35;;;;;;;;;;;19.00;79.20;;;;;;4978023;28;19906;-80
2021/08/14 07:22:01;;;;;;;;;;;19.10;78.90;;;;;;4978105;28;20354;-79
2021/08/14 07:24:27;;;;;;;;;;;19.20;78.60;;;;;;4996462;28;20307;-78
2021/08/14 07:26:52;;;;;;;;;;;19.20;78.60;;;;;;4978912;28;20398;-79
2021/08/14 07:29:18;;;;;;;;;;;19.40;78.10;;;;;;5006711;28;19988;-79
2021/08/14 07:31:43;;;;;;;;;;;19.50;77.90;;;;;;4991652;28;20020;-78
2021/08/14 07:34:09;;;;;;;;;;;19.50;77.70;;;;;;4993383;28;19906;-77
2021/08/14 07:36:34;;;;;;;;;;;19.50;77.50;;;;;;5010830;28;19909;-78
2021/08/14 07:38:59;;;;;;;;;;;19.70;78.20;;;;;;5005586;28;19952;-79
2021/08/14 07:41:25;;;;;;;;;;;19.90;77.70;;;;;;4991811;28;20351;-78
2021/08/14 07:43:50;;;;;;;;;;;20.00;75.90;;;;;;4977081;28;20339;-79
2021/08/14 07:46:16;;;;;;;;;;;20.10;75.80;;;;;;4976865;28;20437;-79
2021/08/14 07:48:41;;;;;;;;;;;20.30;75.60;;;;;;4976741;28;19905;-80
2021/08/14 07:51:07;;;;;;;;;;;20.40;73.80;;;;;;4976420;28;20012;-80
2021/08/14 07:53:32;;;;;;;;;;;20.60;74.00;;;;;;4994719;28;19910;-80
2021/08/14 07:56:00;;;;;;;;;;;20.60;72.20;;;;;;4994309;28;20049;-81
2021/08/14 07:58:26;;;;;;;;;;;20.70;72.80;;;;;;4994216;28;19973;-80
2021/08/14 08:00:51;;;;;;;;;;;20.70;71.80;;;;;;4994033;28;20008;-79
2021/08/14 08:03:17;;;;;;;;;;;20.80;71.90;;;;;;4994456;28;19909;-80
2021/08/14 08:05:42;;;;;;;;;;;20.90;71.60;;;;;;4994193;28;20013;-78
2021/08/14 08:08:08;;;;;;;;;;;21.00;71.00;;;;;;4977281;28;19910;-79
2021/08/14 08:10:34;;;;;;;;;;;21.00;70.70;;;;;;4994495;28;19910;-81
2021/08/14 08:12:59;;;;;;;;;;;21.10;70.80;;;;;;4978906;28;20358;-79
2021/08/14 08:15:26;;;;;;;;;;;21.20;70.20;;;;;;4994956;28;19949;-81
2021/08/14 08:17:51;;;;;;;;;;;21.30;70.00;;;;;;4978104;28;19921;-81
2021/08/14 08:20:18;;;;;;;;;;;21.40;69.90;;;;;;5012301;28;19914;-80
2021/08/14 08:22:43;;;;;;;;;;;21.50;69.70;;;;;;5000573;28;19948;-81
2021/08/14 08:25:10;;;;;;;;;;;21.50;69.80;;;;;;5000269;28;19906;-81
2021/08/14 08:27:37;;;;;;;;;;;21.70;69.70;;;;;;4990999;28;20243;-81
2021/08/14 08:30:03;;;;;;;;;;;21.80;70.70;;;;;;4977808;28;19905;-80
2021/08/14 08:32:29;;;;;;;;;;;22.00;69.50;;;;;;4979207;28;19906;-80
2021/08/14 08:34:54;;;;;;;;;;;22.10;69.90;;;;;;4984336;28;19952;-80
2021/08/14 08:37:19;;;;;;;;;;;22.20;69.40;;;;;;4999279;28;19950;-80
2021/08/14 08:39:45;;;;;;;;;;;22.30;69.00;;;;;;4981446;28;20262;-80
2021/08/14 08:42:11;;;;;;;;;;;22.40;69.20;;;;;;4980785;28;19937;-79
2021/08/14 08:44:36;;;;;;;;;;;22.50;69.10;;;;;;4980419;28;20360;-79
2021/08/14 08:47:04;;;;;;;;;;;22.60;69.00;;;;;;4979935;28;19992;-79
2021/08/14 08:49:33;;;;;;;;;;;22.70;68.60;;;;;;4980079;28;19912;-80
2021/08/14 08:51:58;;;;;;;;;;;22.70;68.50;;;;;;4997714;28;19906;-80
2021/08/14 08:54:24;;;;;;;;;;;22.80;68.30;;;;;;4980096;28;19906;-80
2021/08/14 08:56:49;;;;;;;;;;;22.90;68.30;;;;;;4979968;28;19905;-80
2021/08/14 08:59:15;;;;;;;;;;;23.10;67.80;;;;;;4979825;28;19912;-80
2021/08/14 09:01:41;;;;;;;;;;;23.10;67.90;;;;;;4997287;28;20396;-81
2021/08/14 09:04:18;;;;;;;;;;;23.20;66.70;;;;;;4979740;28;19920;-81
2021/08/14 09:06:44;;;;;;;;;;;23.10;67.80;;;;;;4979868;28;19910;-80
2021/08/14 09:09:11;;;;;;;;;;;23.20;68.00;;;;;;4980064;28;19992;-79
2021/08/14 09:11:46;;;;;;;;;;;23.30;68.40;;;;;;4997091;28;19906;-79
2021/08/14 09:14:11;;;;;;;;;;;23.60;67.50;;;;;;4996680;28;19956;-79
2021/08/14 09:16:37;;;;;;;;;;;23.50;67.60;;;;;;4997620;28;20377;-79
2021/08/14 09:19:03;;;;;;;;;;;23.30;67.80;;;;;;4979668;28;19963;-80
2021/08/14 09:21:32;;;;;;;;;;;23.30;67.80;;;;;;4980033;28;19905;-80
2021/08/14 09:24:00;;;;;;;;;;;23.30;67.40;;;;;;4979174;28;20016;-79
2021/08/14 09:26:26;;;;;;;;;;;23.40;66.80;;;;;;4979878;28;19906;-79
2021/08/14 09:29:02;;;;;;;;;;;23.30;68.40;;;;;;4982103;28;19920;-79
2021/08/14 09:31:45;;;;;;;;;;;23.20;67.20;;;;;;4998665;28;19917;-79
2021/08/14 09:34:17;;;;;;;;;;;23.10;69.00;;;;;;4985585;28;19906;-78
2021/08/14 09:36:43;;;;;;;;;;;23.10;68.50;;;;;;4999744;28;19921;-79
2021/08/14 09:39:08;;;;;;;;;;;23.10;67.90;;;;;;4986213;28;19953;-80
2021/08/14 09:41:34;;;;;;;;;;;23.00;68.00;;;;;;4996875;28;19906;-80
2021/08/14 09:43:59;;;;;;;;;;;23.00;69.50;;;;;;4996281;28;20430;-79
2021/08/14 09:46:41;;;;;;;;;;;23.20;69.10;;;;;;4996471;28;19905;-80
2021/08/14 09:49:06;;;;;;;;;;;23.40;67.10;;;;;;4977416;28;20348;-80
2021/08/14 09:51:33;;;;;;;;;;;23.40;67.40;;;;;;4979092;28;20406;-81
2021/08/14 09:53:59;;;;;;;;;;;23.30;67.20;;;;;;4996373;28;19928;-78
2021/08/14 09:56:26;;;;;;;;;;;23.50;66.60;;;;;;4979111;28;19941;-79
2021/08/14 09:58:52;;;;;;;;;;;23.50;67.60;;;;;;4979347;28;19905;-78
2021/08/14 10:01:18;;;;;;;;;;;23.70;65.80;;;;;;4980372;28;19973;-80
2021/08/14 10:03:44;;;;;;;;;;;23.80;64.40;;;;;;4999040;28;19984;-78
2021/08/14 10:06:10;;;;;;;;;;;23.80;64.40;;;;;;4998834;28;20380;-80
2021/08/14 10:08:36;;;;;;;;;;;24.00;66.80;;;;;;4987748;28;19897;-78
2021/08/14 10:11:04;;;;;;;;;;;24.20;63.70;;;;;;5019372;28;19925;-78
2021/08/14 10:13:32;;;;;;;;;;;24.30;65.90;;;;;;5002714;28;19929;-79
2021/08/14 10:15:57;;;;;;;;;;;24.30;62.30;;;;;;5014655;28;19909;-79
2021/08/14 10:18:23;;;;;;;;;;;24.30;63.10;;;;;;4980125;28;19972;-79
2021/08/14 10:20:48;;;;;;;;;;;24.20;62.90;;;;;;4978223;28;19906;-79
2021/08/14 10:23:22;;;;;;;;;;;23.90;65.30;;;;;;4996594;28;19988;-79
2021/08/14 10:25:56;;;;;;;;;;;23.70;65.30;;;;;;4996250;28;19952;-79
2021/08/14 10:28:39;;;;;;;;;;;23.90;64.70;;;;;;4980072;28;19949;-79
2021/08/14 10:31:05;;;;;;;;;;;23.90;64.30;;;;;;4995587;28;19953;-79
2021/08/14 10:33:32;;;;;;;;;;;23.70;66.10;;;;;;4996067;28;19913;-78
2021/08/14 10:36:18;;;;;;;;;;;23.50;65.80;;;;;;4995460;28;19945;-79
2021/08/14 10:38:45;;;;;;;;;;;23.20;68.90;;;;;;4980210;28;19959;-79
2021/08/14 10:41:12;;;;;;;;;;;23.20;68.40;;;;;;4995535;28;20306;-78
2021/08/14 10:44:01;;;;;;;;;;;23.00;66.60;;;;;;4995586;28;19905;-79
2021/08/14 10:46:37;;;;;;;;;;;22.80;67.50;;;;;;4995206;28;19917;-79
2021/08/14 10:49:03;;;;;;;;;;;22.50;67.90;;;;;;4995172;28;19916;-79
2021/08/14 10:51:51;;;;;;;;;;;22.30;68.40;;;;;;4995002;28;19906;-79
2021/08/14 10:54:29;;;;;;;;;;;22.20;69.10;;;;;;4977697;28;20008;-79
2021/08/14 10:56:54;;;;;;;;;;;22.00;71.90;;;;;;4977956;28;19910;-79
2021/08/14 10:59:38;;;;;;;;;;;21.90;71.20;;;;;;4977921;28;20255;-79
2021/08/14 11:02:07;;;;;;;;;;;21.80;71.80;;;;;;4977433;28;19910;-80
2021/08/14 11:04:33;;;;;;;;;;;21.70;72.70;;;;;;4977379;28;19964;-80
2021/08/14 11:07:20;;;;;;;;;;;21.70;74.30;;;;;;4977324;28;19905;-79
2021/08/14 11:09:49;;;;;;;;;;;21.80;72.10;;;;;;4995158;28;20362;-78
2021/08/14 11:12:29;;;;;;;;;;;21.70;72.90;;;;;;4977587;28;19905;-79
2021/08/14 11:15:12;;;;;;;;;;;21.80;72.80;;;;;;4979212;28;19985;-78
2021/08/14 11:17:37;;;;;;;;;;;21.80;72.50;;;;;;4984569;28;19906;-79
2021/08/14 11:20:03;;;;;;;;;;;21.80;72.70;;;;;;4981473;28;19964;-79
2021/08/14 11:22:40;;;;;;;;;;;21.70;72.70;;;;;;5003055;28;20409;-80
2021/08/14 11:25:19;;;;;;;;;;;21.70;73.50;;;;;;4983757;28;19925;-78
2021/08/14 11:28:03;;;;;;;;;;;22.00;73.00;;;;;;5010396;28;19926;-79
2021/08/14 11:30:34;;;;;;;;;;;22.30;70.10;;;;;;4989610;28;19981;-78
2021/08/14 11:33:03;;;;;;;;;;;22.20;70.70;;;;;;4989032;28;19916;-77
2021/08/14 11:35:28;;;;;;;;;;;22.20;70.40;;;;;;4978448;28;19905;-79
2021/08/14 11:37:55;;;;;;;;;;;22.20;71.70;;;;;;4981390;28;19933;-79
2021/08/14 11:40:22;;;;;;;;;;;22.20;70.40;;;;;;4992786;28;19910;-78
2021/08/14 11:43:01;;;;;;;;;;;22.30;71.10;;;;;;4994440;28;19906;-79
2021/08/14 11:45:28;;;;;;;;;;;22.40;70.90;;;;;;4976505;28;19981;-80
2021/08/14 11:47:56;;;;;;;;;;;22.70;71.60;;;;;;4993649;28;19967;-79
2021/08/14 11:50:22;;;;;;;;;;;22.80;70.60;;;;;;4993766;28;19906;-79
2021/08/14 11:52:47;;;;;;;;;;;22.80;70.50;;;;;;4993723;28;19913;-80
2021/08/14 11:55:13;;;;;;;;;;;23.10;69.40;;;;;;4994621;28;19917;-78
2021/08/14 11:57:42;;;;;;;;;;;23.40;68.90;;;;;;5005978;28;19898;-79
2021/08/14 12:00:16;;;;;;;;;;;23.70;67.40;;;;;;5017307;28;19945;-79
2021/08/14 12:02:42;;;;;;;;;;;24.00;66.20;;;;;;5000126;28;19916;-79
2021/08/14 12:05:08;;;;;;;;;;;24.20;65.60;;;;;;4991403;28;20012;-79
2021/08/14 12:07:33;;;;;;;;;;;24.20;66.30;;;;;;4994916;28;19917;-79
2021/08/14 12:09:59;;;;;;;;;;;24.30;65.00;;;;;;4994274;28;19955;-79
2021/08/14 12:12:26;;;;;;;;;;;24.30;64.90;;;;;;4993034;28;19905;-79
2021/08/14 12:14:52;;;;;;;;;;;24.40;65.00;;;;;;4976430;28;19906;-80
2021/08/14 12:17:17;;;;;;;;;;;24.60;66.50;;;;;;4994065;28;20262;-80
2021/08/14 12:19:50;;;;;;;;;;;24.80;63.70;;;;;;4976322;28;19917;-80
2021/08/14 12:22:16;;;;;;;;;;;25.00;66.70;;;;;;4994065;28;20012;-79
2021/08/14 12:24:44;;;;;;;;;;;25.30;64.10;;;;;;4976367;28;20015;-80
2021/08/14 12:27:23;;;;;;;;;;;25.20;65.10;;;;;;4976353;28;19906;-80
2021/08/14 12:29:49;;;;;;;;;;;25.20;65.00;;;;;;4976226;28;19979;-79
2021/08/14 12:32:14;;;;;;;;;;;25.30;64.20;;;;;;4993744;28;19910;-78
2021/08/14 12:34:41;;;;;;;;;;;25.40;62.70;;;;;;4976512;28;19952;-79
2021/08/14 12:37:16;;;;;;;;;;;25.40;66.40;;;;;;4976101;28;20350;-79
2021/08/14 12:39:57;;;;;;;;;;;25.60;64.90;;;;;;4994594;28;19912;-79
2021/08/14 12:42:22;;;;;;;;;;;25.70;61.70;;;;;;4989721;28;19957;-79
2021/08/14 12:44:48;;;;;;;;;;;25.80;62.00;;;;;;5011759;28;19925;-79
2021/08/14 12:47:23;;;;;;;;;;;25.90;58.80;;;;;;4976654;28;19913;-79
2021/08/14 12:50:06;;;;;;;;;;;26.00;62.80;;;;;;4993531;28;20016;-78
2021/08/14 12:52:32;;;;;;;;;;;26.00;61.80;;;;;;4993954;28;19905;-79
2021/08/14 12:54:57;;;;;;;;;;;26.10;59.70;;;;;;4976192;28;20309;-79
2021/08/14 12:57:22;;;;;;;;;;;26.30;58.20;;;;;;4977295;28;20436;-79
2021/08/14 12:59:48;;;;;;;;;;;26.40;59.00;;;;;;4976225;28;20350;-79
2021/08/14 13:02:15;;;;;;;;;;;26.50;63.00;;;;;;4976212;28;19917;-79
2021/08/14 13:04:40;;;;;;;;;;;26.70;61.30;;;;;;4993342;28;19922;-79
2021/08/14 13:07:06;;;;;;;;;;;26.70;57.10;;;;;;4993144;28;20366;-79
2021/08/14 13:09:32;;;;;;;;;;;26.80;60.70;;;;;;4975992;28;19905;-79
2021/08/14 13:11:58;;;;;;;;;;;26.90;58.90;;;;;;4993344;28;19905;-78
2021/08/14 13:14:24;;;;;;;;;;;26.90;62.70;;;;;;4993975;28;19913;-80
2021/08/14 13:16:50;;;;;;;;;;;26.80;56.50;;;;;;4976108;28;19912;-79
2021/08/14 13:19:16;;;;;;;;;;;26.60;62.50;;;;;;4993980;28;19960;-79
2021/08/14 13:21:41;;;;;;;;;;;26.60;58.00;;;;;;4987851;28;19890;-79
2021/08/14 13:24:07;;;;;;;;;;;26.50;57.50;;;;;;5009863;28;20382;-78
2021/08/14 13:26:33;;;;;;;;;;;26.40;59.00;;;;;;4998388;28;19929;-79
2021/08/14 13:28:59;;;;;;;;;;;26.40;61.40;;;;;;4990773;28;20329;-79
2021/08/14 13:31:24;;;;;;;;;;;26.50;60.10;;;;;;4979770;28;19945;-80
2021/08/14 13:33:51;;;;;;;;;;;26.60;63.30;;;;;;4979187;28;19905;-79
2021/08/14 13:36:16;;;;;;;;;;;26.70;58.10;;;;;;4979936;28;20349;-79
2021/08/14 13:38:42;;;;;;;;;;;26.90;60.90;;;;;;4980958;28;19975;-80
2021/08/14 13:41:08;;;;;;;;;;;27.00;59.80;;;;;;4983717;28;19961;-77
2021/08/14 13:43:34;;;;;;;;;;;27.00;55.70;;;;;;4983525;28;19957;-79
2021/08/14 13:46:00;;;;;;;;;;;27.00;62.40;;;;;;5005249;28;19905;-79
2021/08/14 13:48:26;;;;;;;;;;;27.00;55.90;;;;;;5000656;28;19917;-79
2021/08/14 13:50:51;;;;;;;;;;;26.80;61.20;;;;;;5002967;28;19910;-83
2021/08/14 13:53:17;;;;;;;;;;;26.80;57.40;;;;;;4998618;28;19976;-79
2021/08/14 13:55:42;;;;;;;;;;;26.80;62.50;;;;;;4985547;28;19920;-78
2021/08/14 13:58:08;;;;;;;;;;;26.90;57.70;;;;;;4997723;28;20274;-78
2021/08/14 14:00:35;;;;;;;;;;;26.70;59.70;;;;;;4981619;28;19917;-80
2021/08/14 14:03:00;;;;;;;;;;;26.50;56.00;;;;;;4980502;28;19905;-79
2021/08/14 14:05:26;;;;;;;;;;;26.60;55.80;;;;;;4996986;28;20001;-78
2021/08/14 14:07:51;;;;;;;;;;;26.70;58.40;;;;;;4978257;28;19906;-79
2021/08/14 14:10:17;;;;;;;;;;;26.60;56.40;;;;;;4978481;28;19937;-78
2021/08/14 14:12:43;;;;;;;;;;;26.40;60.60;;;;;;4978247;28;19906;-78
2021/08/14 14:15:09;;;;;;;;;;;26.40;61.10;;;;;;4978291;28;19929;-80